createdAt,value
2023-08-29T00:01:37.912Z,9.70
2023-08-29T00:04:26.571Z,10.30
2023-08-29T00:07:15.196Z,8.50
2023-08-29T00:10:04.430Z,11.20
2023-08-29T00:12:53.725Z,9.60
2023-08-29T00:15:42.337Z,8.60
2023-08-29T00:18:30.911Z,9.30
2023-08-29T00:21:19.507Z,8.80
2023-08-29T00:24:10.932Z,8.80
2023-08-29T00:27:00.022Z,7.70
2023-08-29T00:29:48.674Z,8.30
2023-08-29T00:32:37.322Z,7.90
2023-08-29T00:35:26.131Z,7.30
2023-08-29T00:38:15.665Z,6.90
2023-08-29T00:41:05.015Z,6.90
2023-08-29T00:43:53.770Z,7.70
2023-08-29T00:46:44.232Z,7.70
2023-08-29T00:49:32.972Z,8.10
2023-08-29T00:52:21.821Z,7.80
2023-08-29T00:55:10.599Z,11.80
2023-08-29T00:58:01.423Z,7.70
2023-08-29T01:00:50.216Z,8.10
2023-08-29T01:03:40.115Z,8.00
2023-08-29T01:06:28.997Z,10.00
2023-08-29T01:09:17.792Z,7.90
2023-08-29T01:12:12.423Z,9.20
2023-08-29T01:15:13.964Z,10.50
2023-08-29T01:18:07.090Z,9.60
2023-08-29T01:21:03.999Z,8.50
2023-08-29T01:24:02.625Z,9.10
2023-08-29T01:26:52.366Z,7.90
2023-08-29T01:29:42.658Z,8.80
2023-08-29T01:32:31.974Z,9.70
2023-08-29T01:35:22.923Z,8.30
2023-08-29T01:41:00.170Z,11.30
2023-08-29T01:43:48.850Z,11.80
2023-08-29T01:46:38.450Z,9.80
2023-08-29T01:49:28.252Z,14.40
2023-08-29T01:52:17.059Z,13.10
2023-08-29T01:55:06.167Z,11.60
2023-08-29T01:57:55.729Z,11.60
2023-08-29T02:00:45.379Z,12.80
2023-08-29T02:03:34.096Z,11.40
2023-08-29T02:06:22.777Z,11.50
2023-08-29T02:09:12.326Z,8.80
2023-08-29T02:12:01.167Z,9.40
2023-08-29T02:14:49.871Z,8.40
2023-08-29T02:17:38.645Z,8.80
2023-08-29T02:20:30.446Z,8.00
2023-08-29T02:23:19.130Z,7.50
2023-08-29T02:26:09.248Z,8.50
2023-08-29T02:28:57.976Z,8.20
2023-08-29T02:31:46.772Z,8.30
2023-08-29T02:34:35.376Z,8.10
2023-08-29T02:37:25.567Z,10.00
2023-08-29T02:40:14.387Z,10.40
2023-08-29T02:43:03.060Z,9.30
2023-08-29T02:45:52.003Z,11.10
2023-08-29T02:48:40.693Z,10.90
2023-08-29T02:51:29.318Z,12.20
2023-08-29T02:54:19.421Z,13.10
2023-08-29T02:57:08.073Z,13.40
2023-08-29T02:59:56.823Z,13.10
2023-08-29T03:02:45.570Z,10.50
2023-08-29T03:05:34.451Z,13.30
2023-08-29T03:08:23.336Z,14.00
2023-08-29T03:11:12.157Z,13.00
2023-08-29T03:14:00.841Z,12.50
2023-08-29T03:16:49.511Z,12.30
2023-08-29T03:19:38.327Z,13.20
2023-08-29T03:22:26.920Z,11.80
2023-08-29T03:25:15.814Z,13.50
2023-08-29T03:28:05.428Z,13.00
2023-08-29T03:30:54.384Z,12.70
2023-08-29T03:33:44.877Z,16.20
2023-08-29T03:36:33.651Z,14.00
2023-08-29T03:39:22.401Z,15.00
2023-08-29T03:42:11.042Z,12.90
2023-08-29T03:44:59.689Z,14.10
2023-08-29T03:47:49.600Z,17.00
2023-08-29T03:50:38.326Z,17.40
2023-08-29T03:53:26.927Z,14.50
2023-08-29T03:56:16.568Z,12.60
2023-08-29T03:59:05.338Z,15.40
2023-08-29T04:01:53.986Z,14.50
2023-08-29T04:04:45.632Z,16.70
2023-08-29T04:07:34.384Z,14.90
2023-08-29T04:10:23.006Z,14.60
2023-08-29T04:13:16.301Z,16.10
2023-08-29T04:16:05.402Z,17.30
2023-08-29T04:18:55.247Z,19.00
2023-08-29T04:21:44.227Z,19.00
2023-08-29T04:24:33.712Z,19.70
2023-08-29T04:27:22.895Z,16.30
2023-08-29T04:30:11.717Z,17.20
2023-08-29T04:33:00.869Z,17.40
2023-08-29T04:35:51.898Z,17.80
2023-08-29T04:38:43.156Z,16.60
2023-08-29T04:41:31.770Z,18.20
2023-08-29T04:44:20.548Z,18.00
2023-08-29T04:47:09.670Z,14.20
2023-08-29T04:49:58.940Z,15.60
2023-08-29T04:52:49.686Z,16.60
2023-08-29T04:55:38.794Z,17.50
2023-08-29T04:58:27.878Z,17.50
2023-08-29T05:01:18.246Z,19.00
2023-08-29T05:04:09.820Z,16.90
2023-08-29T05:06:58.454Z,18.20
2023-08-29T05:09:48.262Z,15.70
2023-08-29T05:12:37.060Z,16.00
2023-08-29T05:15:25.823Z,18.10
2023-08-29T05:18:14.680Z,16.20
2023-08-29T05:21:03.975Z,17.80
2023-08-29T05:23:52.626Z,15.80
2023-08-29T05:26:41.284Z,16.00
2023-08-29T05:29:29.934Z,18.10
2023-08-29T05:32:18.495Z,14.90
2023-08-29T05:35:10.457Z,16.70
2023-08-29T05:37:59.085Z,15.10
2023-08-29T05:40:55.224Z,14.90
2023-08-29T05:43:43.810Z,13.80
2023-08-29T05:46:32.603Z,17.30
2023-08-29T05:49:21.262Z,14.90
2023-08-29T05:52:10.000Z,13.80
2023-08-29T05:54:58.908Z,14.50
2023-08-29T05:57:47.541Z,14.80
2023-08-29T06:00:37.257Z,14.70
2023-08-29T06:03:26.060Z,15.50
2023-08-29T06:06:16.266Z,15.80
2023-08-29T06:09:04.959Z,15.40
2023-08-29T06:11:53.628Z,17.60
2023-08-29T06:14:42.345Z,16.90
2023-08-29T06:17:31.334Z,16.20
2023-08-29T06:20:20.095Z,15.50
2023-08-29T06:23:08.723Z,15.30
2023-08-29T06:25:57.412Z,16.30
2023-08-29T06:28:46.138Z,14.40
2023-08-29T06:31:34.893Z,14.70
2023-08-29T06:34:24.837Z,16.20
2023-08-29T06:37:13.446Z,17.90
2023-08-29T06:40:02.062Z,17.10
2023-08-29T06:42:50.789Z,14.60
2023-08-29T06:45:39.373Z,16.10
2023-08-29T06:48:27.973Z,18.00
2023-08-29T06:51:16.583Z,16.90
2023-08-29T06:54:05.496Z,13.50
2023-08-29T06:56:54.054Z,14.90
2023-08-29T06:59:42.647Z,17.40
2023-08-29T07:02:31.396Z,16.40
2023-08-29T07:05:20.566Z,16.70
2023-08-29T07:08:09.405Z,20.20
2023-08-29T07:10:58.361Z,21.70
2023-08-29T07:13:46.999Z,22.00
2023-08-29T07:16:35.688Z,18.50
2023-08-29T07:19:24.338Z,19.00
2023-08-29T07:25:06.721Z,23.20
2023-08-29T07:27:55.312Z,17.50
2023-08-29T07:30:46.871Z,18.50
2023-08-29T07:33:35.561Z,20.30
2023-08-29T07:36:24.241Z,18.60
2023-08-29T07:39:13.293Z,17.30
2023-08-29T07:42:01.923Z,19.00
2023-08-29T07:44:50.587Z,17.00
2023-08-29T07:47:39.316Z,17.20
2023-08-29T07:50:28.679Z,17.40
2023-08-29T07:53:17.512Z,15.70
2023-08-29T07:56:06.157Z,14.50
2023-08-29T07:58:54.914Z,14.50
2023-08-29T08:01:44.159Z,16.00
2023-08-29T08:04:32.806Z,16.80
2023-08-29T08:07:21.554Z,18.00
2023-08-29T08:10:11.665Z,17.80
2023-08-29T08:13:00.302Z,18.70
2023-08-29T08:15:48.868Z,15.60
2023-08-29T08:18:37.537Z,15.80
2023-08-29T08:21:26.146Z,15.90
2023-08-29T08:24:14.775Z,22.40
2023-08-29T08:27:03.716Z,19.40
2023-08-29T08:29:52.345Z,15.60
2023-08-29T08:32:40.964Z,14.90
2023-08-29T08:35:31.812Z,17.70
2023-08-29T08:38:22.256Z,17.00
2023-08-29T08:41:11.689Z,19.10
2023-08-29T08:44:05.081Z,14.60
2023-08-29T08:46:54.192Z,16.70
2023-08-29T08:49:43.988Z,17.80
2023-08-29T08:52:34.753Z,19.40
2023-08-29T08:55:24.133Z,15.70
2023-08-29T08:58:13.725Z,16.50
2023-08-29T09:01:02.597Z,17.30
2023-08-29T09:03:51.870Z,15.00
2023-08-29T09:06:40.799Z,14.70
2023-08-29T09:09:29.394Z,16.20
2023-08-29T09:12:18.032Z,16.00
2023-08-29T09:15:07.129Z,16.60
2023-08-29T09:17:55.959Z,16.10
2023-08-29T09:20:44.762Z,16.60
2023-08-29T09:23:38.884Z,19.90
2023-08-29T09:26:35.080Z,19.40
2023-08-29T09:29:25.191Z,22.50
2023-08-29T09:32:15.135Z,20.30
2023-08-29T09:35:06.804Z,23.10
2023-08-29T09:37:56.600Z,21.00
2023-08-29T09:40:50.455Z,25.30
2023-08-29T09:43:48.870Z,20.00
2023-08-29T09:46:37.673Z,19.80
2023-08-29T09:49:52.922Z,19.60
2023-08-29T09:52:42.095Z,15.10
2023-08-29T09:55:40.552Z,14.30
2023-08-29T09:58:30.775Z,13.70
2023-08-29T10:01:21.906Z,13.60
2023-08-29T10:04:13.131Z,16.70
2023-08-29T10:07:02.498Z,15.90
2023-08-29T10:09:52.358Z,13.70
2023-08-29T10:12:41.704Z,13.10
2023-08-29T10:15:34.549Z,14.30
2023-08-29T10:18:24.561Z,17.20
2023-08-29T10:21:14.102Z,16.10
2023-08-29T10:24:04.196Z,20.40
2023-08-29T10:26:53.384Z,20.30
2023-08-29T10:29:42.104Z,22.70
2023-08-29T10:32:31.424Z,21.10
2023-08-29T10:35:23.867Z,19.90
2023-08-29T10:38:16.709Z,20.80
2023-08-29T10:41:07.788Z,18.60
2023-08-29T10:44:44.814Z,18.60
2023-08-29T10:47:47.088Z,15.30
2023-08-29T10:50:37.994Z,20.80
2023-08-29T10:53:30.718Z,20.90
2023-08-29T10:59:30.409Z,25.10
2023-08-29T11:02:23.286Z,23.90
2023-08-29T11:05:13.494Z,22.70
2023-08-29T11:08:24.251Z,25.80
2023-08-29T11:11:17.835Z,24.60
2023-08-29T11:14:09.385Z,24.50
2023-08-29T11:17:13.508Z,25.30
2023-08-29T11:20:08.091Z,24.40
2023-08-29T11:22:56.975Z,24.70
2023-08-29T11:25:50.854Z,25.80
2023-08-29T11:28:43.328Z,24.30
2023-08-29T11:31:32.070Z,28.00
2023-08-29T11:34:22.155Z,23.40
2023-08-29T11:37:13.437Z,28.60
2023-08-29T11:40:06.830Z,29.90
2023-08-29T11:43:15.808Z,26.90
2023-08-29T11:46:07.932Z,27.00
2023-08-29T11:48:56.604Z,28.10
2023-08-29T11:51:45.570Z,27.00
2023-08-29T11:54:42.673Z,29.70
2023-08-29T11:57:31.534Z,27.00
2023-08-29T12:00:21.367Z,27.20
2023-08-29T12:03:10.221Z,25.10
2023-08-29T12:05:59.524Z,26.20
2023-08-29T12:08:49.125Z,28.70
2023-08-29T12:11:43.170Z,31.40
2023-08-29T12:14:32.361Z,31.10
2023-08-29T12:17:21.448Z,28.10
2023-08-29T12:20:13.533Z,28.40
2023-08-29T12:23:02.426Z,26.00
2023-08-29T12:25:50.990Z,28.40
2023-08-29T12:28:40.042Z,25.30
2023-08-29T12:31:28.818Z,23.10
2023-08-29T12:34:17.505Z,22.90
2023-08-29T12:37:06.748Z,26.40
2023-08-29T12:39:55.370Z,26.20
2023-08-29T12:42:45.263Z,24.60
2023-08-29T12:45:44.656Z,26.10
2023-08-29T12:48:42.141Z,26.00
2023-08-29T12:51:32.384Z,24.60
2023-08-29T12:54:20.980Z,26.40
2023-08-29T12:57:10.662Z,25.10
2023-08-29T12:59:59.246Z,26.80
2023-08-29T13:02:48.686Z,26.50
2023-08-29T13:05:37.545Z,27.90
2023-08-29T13:08:26.336Z,26.10
2023-08-29T13:11:14.960Z,22.70
2023-08-29T13:14:04.522Z,24.00
2023-08-29T13:16:55.556Z,23.90
2023-08-29T13:19:44.160Z,23.30
2023-08-29T13:22:32.744Z,22.80
2023-08-29T13:25:22.272Z,21.30
2023-08-29T13:28:11.045Z,20.30
2023-08-29T13:31:00.191Z,21.70
2023-08-29T13:33:50.039Z,21.10
2023-08-29T13:36:41.446Z,23.60
2023-08-29T13:39:30.186Z,20.50
2023-08-29T13:42:18.873Z,21.70
2023-08-29T13:45:08.519Z,23.50
2023-08-29T13:47:57.204Z,23.50
2023-08-29T13:50:46.345Z,21.60
2023-08-29T13:53:35.039Z,22.00
2023-08-29T13:56:23.672Z,22.50
2023-08-29T13:59:12.331Z,18.80
2023-08-29T14:02:00.969Z,20.60
2023-08-29T14:04:49.607Z,22.90
2023-08-29T14:07:38.267Z,20.00
2023-08-29T14:10:26.904Z,24.10
2023-08-29T14:13:15.565Z,19.90
2023-08-29T14:16:04.860Z,21.10
2023-08-29T14:18:54.056Z,22.40
2023-08-29T14:21:42.976Z,25.50
2023-08-29T14:24:31.536Z,23.10
2023-08-29T14:27:20.038Z,25.90
2023-08-29T14:30:08.808Z,25.80
2023-08-29T14:32:57.612Z,23.90
2023-08-29T14:35:46.189Z,18.30
2023-08-29T14:38:34.833Z,18.00
2023-08-29T14:41:23.438Z,19.20
2023-08-29T14:44:12.007Z,20.60
2023-08-29T14:47:00.637Z,20.90
2023-08-29T14:49:49.135Z,20.60
2023-08-29T14:52:38.782Z,18.00
2023-08-29T14:55:27.342Z,18.00
2023-08-29T14:58:15.896Z,19.50
2023-08-29T15:01:04.685Z,21.00
2023-08-29T15:03:53.326Z,21.90
2023-08-29T15:06:41.908Z,20.90
2023-08-29T15:09:30.440Z,22.10
2023-08-29T15:12:22.611Z,20.50
2023-08-29T15:15:11.323Z,18.80
2023-08-29T15:17:59.899Z,18.70
2023-08-29T15:20:49.806Z,19.80
2023-08-29T15:23:38.369Z,16.80
2023-08-29T15:26:27.011Z,20.20
2023-08-29T15:29:17.631Z,18.60
2023-08-29T15:32:06.523Z,22.70
2023-08-29T15:34:55.123Z,19.80
2023-08-29T15:37:43.679Z,19.80
2023-08-29T15:40:32.609Z,22.80
2023-08-29T15:43:22.758Z,24.90
2023-08-29T15:46:11.409Z,25.10
2023-08-29T15:48:59.947Z,22.00
2023-08-29T15:51:48.498Z,23.00
2023-08-29T15:54:37.222Z,22.50
2023-08-29T15:57:25.838Z,17.90
2023-08-29T16:00:17.765Z,19.20
2023-08-29T16:03:07.908Z,22.90
2023-08-29T16:05:56.670Z,24.80
2023-08-29T16:08:45.248Z,21.30
2023-08-29T16:11:33.868Z,27.80
2023-08-29T16:14:23.353Z,22.50
2023-08-29T16:17:11.954Z,21.90
2023-08-29T16:20:00.542Z,23.00
2023-08-29T16:22:49.138Z,25.10
2023-08-29T16:25:37.696Z,23.00
2023-08-29T16:28:26.953Z,27.90
2023-08-29T16:31:15.614Z,25.20
2023-08-29T16:34:04.210Z,23.00
2023-08-29T16:36:52.844Z,27.60
2023-08-29T16:39:41.567Z,24.40
2023-08-29T16:42:33.828Z,28.20
2023-08-29T16:45:24.641Z,25.60
2023-08-29T16:51:01.666Z,23.60
2023-08-29T16:53:50.221Z,25.00
2023-08-29T16:56:38.749Z,25.10
2023-08-29T16:59:31.552Z,25.10
2023-08-29T17:02:20.409Z,23.20
2023-08-29T17:05:09.280Z,24.50
2023-08-29T17:07:58.443Z,23.10
2023-08-29T17:10:47.706Z,22.30
2023-08-29T17:13:36.223Z,20.80
2023-08-29T17:16:24.867Z,23.70
2023-08-29T17:19:14.096Z,17.30
2023-08-29T17:22:03.396Z,18.60
2023-08-29T17:24:52.434Z,21.60
2023-08-29T17:27:41.164Z,20.50
2023-08-29T17:30:29.688Z,20.60
2023-08-29T17:33:20.384Z,21.00
2023-08-29T17:36:09.167Z,18.40
2023-08-29T17:38:57.770Z,24.50
2023-08-29T17:41:46.332Z,22.70
2023-08-29T17:44:34.865Z,21.50
2023-08-29T17:47:23.469Z,23.40
2023-08-29T17:50:13.807Z,22.30
2023-08-29T17:53:02.457Z,20.10
2023-08-29T17:55:53.518Z,18.60
2023-08-29T17:58:42.070Z,21.10
2023-08-29T18:01:30.707Z,21.30
2023-08-29T18:04:19.282Z,21.10
2023-08-29T18:07:09.606Z,23.10
2023-08-29T18:10:14.664Z,21.40
2023-08-29T18:13:03.830Z,24.70
2023-08-29T18:15:52.565Z,21.90
2023-08-29T18:18:41.180Z,21.50
2023-08-29T18:21:29.851Z,21.90
2023-08-29T18:24:18.374Z,22.40
2023-08-29T18:27:06.938Z,24.70
2023-08-29T18:29:55.477Z,22.30
2023-08-29T18:32:44.271Z,22.20
2023-08-29T18:35:34.844Z,24.10
2023-08-29T18:38:24.777Z,20.40
2023-08-29T18:41:13.353Z,23.20
2023-08-29T18:44:01.923Z,25.00
2023-08-29T18:46:50.445Z,21.90
2023-08-29T18:49:39.142Z,19.60
2023-08-29T18:52:27.656Z,22.10
2023-08-29T18:55:16.942Z,20.40
2023-08-29T18:58:05.908Z,19.80
2023-08-29T19:00:54.691Z,20.00
2023-08-29T19:03:44.762Z,24.00
2023-08-29T19:06:33.635Z,23.30
2023-08-29T19:09:22.380Z,22.30
2023-08-29T19:12:11.005Z,25.40
2023-08-29T19:15:01.849Z,26.40
2023-08-29T19:20:39.282Z,24.00
2023-08-29T19:23:29.341Z,24.30
2023-08-29T19:26:18.541Z,26.20
2023-08-29T19:29:07.158Z,26.80
2023-08-29T19:31:55.842Z,23.80
2023-08-29T19:34:44.372Z,24.60
2023-08-29T19:37:33.231Z,26.30
2023-08-29T19:40:21.994Z,27.20
2023-08-29T19:43:10.520Z,21.50
2023-08-29T19:45:59.197Z,24.80
2023-08-29T19:48:47.753Z,26.00
2023-08-29T19:51:36.300Z,24.50
2023-08-29T19:54:24.911Z,25.90
2023-08-29T19:57:14.374Z,24.50
2023-08-29T20:00:06.314Z,27.00
2023-08-29T20:03:02.420Z,23.20
2023-08-29T20:05:51.041Z,23.40
2023-08-29T20:08:39.834Z,23.80
2023-08-29T20:11:28.734Z,23.60
2023-08-29T20:14:17.425Z,23.80
2023-08-29T20:17:06.641Z,23.70
2023-08-29T20:19:55.299Z,26.00
2023-08-29T20:22:44.567Z,24.70
2023-08-29T20:25:33.987Z,21.80
2023-08-29T20:28:22.873Z,23.20
2023-08-29T20:31:12.252Z,22.80
2023-08-29T20:34:00.849Z,25.10
2023-08-29T20:36:49.506Z,25.10
2023-08-29T20:39:38.913Z,28.00
2023-08-29T20:42:27.508Z,26.90
2023-08-29T20:45:16.459Z,29.20
2023-08-29T20:48:05.601Z,28.30
2023-08-29T20:51:02.229Z,27.50
2023-08-29T20:53:51.210Z,27.30
2023-08-29T20:56:39.826Z,28.40
2023-08-29T20:59:28.786Z,29.30
2023-08-29T21:02:17.429Z,34.60
2023-08-29T21:05:06.817Z,33.80
2023-08-29T21:07:55.341Z,43.10
2023-08-29T21:10:44.692Z,35.10
2023-08-29T21:13:33.292Z,33.00
2023-08-29T21:16:21.835Z,31.20
2023-08-29T21:19:10.377Z,28.30
2023-08-29T21:21:59.250Z,28.30
2023-08-29T21:24:47.841Z,27.70
2023-08-29T21:27:36.357Z,27.60
2023-08-29T21:30:24.910Z,27.40
2023-08-29T21:33:14.897Z,27.30
2023-08-29T21:36:04.321Z,32.40
2023-08-29T21:38:52.912Z,35.20
2023-08-29T21:41:41.884Z,35.20
2023-08-29T21:44:30.383Z,37.50
2023-08-29T21:47:18.962Z,36.50
2023-08-29T21:50:07.951Z,32.00
2023-08-29T21:52:56.759Z,33.50
2023-08-29T21:55:45.987Z,35.90
2023-08-29T21:58:34.605Z,35.20
2023-08-29T22:01:23.186Z,34.70
2023-08-29T22:04:11.734Z,33.90
2023-08-29T22:07:00.283Z,36.20
2023-08-29T22:09:48.862Z,30.90
2023-08-29T22:12:37.713Z,34.80
2023-08-29T22:15:26.291Z,33.00
2023-08-29T22:18:14.942Z,29.80
2023-08-29T22:21:07.845Z,30.20
2023-08-29T22:23:56.516Z,32.00
2023-08-29T22:26:45.040Z,27.90
2023-08-29T22:29:34.940Z,30.80
2023-08-29T22:32:23.940Z,27.50
2023-08-29T22:35:12.652Z,29.00
2023-08-29T22:38:01.655Z,33.70
2023-08-29T22:40:50.636Z,37.80
2023-08-29T22:43:39.260Z,32.30
2023-08-29T22:46:27.931Z,28.30
2023-08-29T22:49:16.858Z,22.90
2023-08-29T22:52:05.875Z,24.20
2023-08-29T22:54:54.527Z,29.10
2023-08-29T22:57:43.154Z,29.80
2023-08-29T23:00:31.840Z,24.00
2023-08-29T23:03:20.651Z,25.80
2023-08-29T23:06:09.349Z,23.50
2023-08-29T23:08:58.911Z,25.20
2023-08-29T23:11:47.482Z,24.90
2023-08-29T23:14:36.151Z,21.90
2023-08-29T23:17:25.013Z,21.50
2023-08-29T23:20:13.871Z,16.00
2023-08-29T23:23:02.528Z,17.80
2023-08-29T23:25:59.131Z,14.20
2023-08-29T23:28:47.797Z,12.70
2023-08-29T23:31:36.509Z,15.60
2023-08-29T23:34:26.660Z,13.90
2023-08-29T23:37:15.240Z,13.00
2023-08-29T23:40:08.075Z,13.80
2023-08-29T23:42:56.935Z,12.30
2023-08-29T23:45:45.551Z,10.70
2023-08-29T23:48:34.692Z,10.80
2023-08-29T23:51:23.601Z,10.70
2023-08-29T23:54:12.181Z,8.60
2023-08-29T23:57:00.712Z,7.30
2023-08-29T23:59:49.347Z,8.10
